Time;durP1;ratioP1;P1;durP2;ratioP2;P2;SDS_P1;SDS_P2;PMS_P1;PMS_P2;Temp;Humidity;BMP_temperature;BMP_pressure;BME280_temperature;BME280_humidity;BME280_pressure;Samples;Min_cycle;Max_cycle;Signal;HPM_P1;HPM_P2
2022/05/09 00:00:58;;;;;;;;;;;;;;;8.57;28.52;97576.16;6366689;27;20022;-63
2022/05/09 00:03:59;;;;;;;;;;;;;;;8.48;28.36;97580.03;6364149;27;19923;-63
2022/05/09 00:07:01;;;;;;;;;;;;;;;8.35;28.64;97584.13;6370640;27;19971;-63
2022/05/09 00:10:04;;;;;;;;;;;;;;;8.29;28.40;97589.63;6370342;27;19920;-63
2022/05/09 00:13:05;;;;;;;;;;;;;;;8.22;28.75;97580.34;6364465;27;19947;-63
2022/05/09 00:16:09;;;;;;;;;;;;;;;8.19;28.67;97577.84;6359002;27;19919;-63
2022/05/09 00:19:11;;;;;;;;;;;;;;;8.20;29.18;97564.66;6359919;27;19923;-64
2022/05/09 00:22:17;;;;;;;;;;;;;;;8.16;29.13;97562.25;6365389;27;20387;-64
2022/05/09 00:25:19;;;;;;;;;;;;;;;8.13;29.15;97567.63;6368149;27;19927;-63
2022/05/09 00:28:20;;;;;;;;;;;;;;;8.17;28.94;97558.72;6364298;27;19924;-63
2022/05/09 00:31:21;;;;;;;;;;;;;;;8.22;28.76;97551.50;6256264;27;129825;-63
2022/05/09 00:34:23;;;;;;;;;;;;;;;8.29;28.80;97553.78;6284547;28;19924;-63
2022/05/09 00:37:24;;;;;;;;;;;;;;;8.29;28.65;97556.41;6294041;28;19931;-62
2022/05/09 00:40:25;;;;;;;;;;;;;;;8.33;28.71;97560.56;6292813;28;20398;-63
2022/05/09 00:43:30;;;;;;;;;;;;;;;8.42;28.69;97558.50;6295170;28;20317;-63
2022/05/09 00:46:33;;;;;;;;;;;;;;;8.57;28.95;97568.28;6285896;28;19963;-63
2022/05/09 00:49:43;;;;;;;;;;;;;;;8.51;29.15;97566.78;6293569;28;19924;-63
2022/05/09 00:52:46;;;;;;;;;;;;;;;8.57;29.57;97563.03;6294982;28;19924;-63
2022/05/09 00:55:51;;;;;;;;;;;;;;;8.42;29.61;97564.59;6292766;28;19982;-63
2022/05/09 00:58:56;;;;;;;;;;;;;;;8.35;30.03;97555.28;6295110;28;20298;-63
2022/05/09 01:01:57;;;;;;;;;;;;;;;8.29;30.08;97563.41;6291127;28;19931;-63
2022/05/09 01:05:00;;;;;;;;;;;;;;;8.28;30.54;97556.47;6293223;28;20428;-63
2022/05/09 01:08:02;;;;;;;;;;;;;;;8.32;30.56;97558.00;6291476;28;19925;-63
2022/05/09 01:11:09;;;;;;;;;;;;;;;8.26;30.61;97558.28;6293778;28;19920;-63
2022/05/09 01:14:18;;;;;;;;;;;;;;;8.33;30.97;97554.50;6291112;28;20394;-63
2022/05/09 01:17:22;;;;;;;;;;;;;;;8.49;30.94;97562.53;6293864;28;19924;-63
2022/05/09 01:20:23;;;;;;;;;;;;;;;8.30;30.38;97558.09;6289981;28;19924;-63
2022/05/09 01:23:31;;;;;;;;;;;;;;;8.21;30.09;97555.00;6288556;28;20385;-67
2022/05/09 01:26:33;;;;;;;;;;;;;;;8.18;30.20;97560.41;6293431;28;19925;-67
2022/05/09 01:29:59;;;;;;;;;;;;;;;8.20;29.96;97553.31;6297132;28;19952;-66
2022/05/09 01:33:00;;;;;;;;;;;;;;;8.28;30.20;97552.06;6285805;28;19931;-66
2022/05/09 01:36:07;;;;;;;;;;;;;;;8.30;29.90;97549.38;6295848;28;19928;-67
2022/05/09 01:39:11;;;;;;;;;;;;;;;8.37;29.86;97548.19;6294861;28;19929;-67
2022/05/09 01:42:15;;;;;;;;;;;;;;;8.44;29.87;97552.25;6296521;28;19932;-67
2022/05/09 01:45:18;;;;;;;;;;;;;;;8.53;29.72;97551.84;6295597;28;19939;-67
2022/05/09 01:51:45;;;;;;;;;;;;;;;8.77;29.16;97549.00;6288724;28;19925;-66
2022/05/09 01:54:48;;;;;;;;;;;;;;;8.88;29.27;97553.75;6290640;28;19924;-66
2022/05/09 01:57:52;;;;;;;;;;;;;;;9.01;29.03;97551.41;6290373;28;20290;-67
2022/05/09 02:00:55;;;;;;;;;;;;;;;9.13;28.98;97548.19;6289297;28;19924;-66
2022/05/09 02:03:58;;;;;;;;;;;;;;;9.26;28.71;97536.16;6289483;28;19947;-66
2022/05/09 02:06:59;;;;;;;;;;;;;;;9.39;28.62;97534.63;6290904;28;19924;-66
2022/05/09 02:10:03;;;;;;;;;;;;;;;9.49;28.59;97526.31;6288718;28;19928;-66
2022/05/09 02:13:09;;;;;;;;;;;;;;;9.54;28.95;97521.63;6291127;28;19924;-66
2022/05/09 02:16:11;;;;;;;;;;;;;;;9.56;28.41;97518.00;6288192;28;20386;-66
2022/05/09 02:19:12;;;;;;;;;;;;;;;9.60;28.59;97523.97;6291342;28;19924;-66
2022/05/09 02:22:16;;;;;;;;;;;;;;;9.64;28.46;97521.09;6291817;28;20444;-66
2022/05/09 02:25:31;;;;;;;;;;;;;;;9.69;28.38;97520.03;6291174;28;19928;-66
2022/05/09 02:28:34;;;;;;;;;;;;;;;9.77;28.31;97516.09;6290285;28;19924;-67
2022/05/09 02:31:35;;;;;;;;;;;;;;;9.84;28.38;97501.69;6291629;28;19931;-66
2022/05/09 02:34:38;;;;;;;;;;;;;;;9.86;28.19;97505.09;6291563;28;20386;-67
2022/05/09 02:37:39;;;;;;;;;;;;;;;9.94;28.11;97495.97;6291479;28;19928;-66
2022/05/09 02:40:42;;;;;;;;;;;;;;;10.07;27.96;97497.00;6291238;28;19924;-67
2022/05/09 02:43:46;;;;;;;;;;;;;;;10.18;27.57;97494.66;6289252;28;19924;-67
2022/05/09 02:46:49;;;;;;;;;;;;;;;10.21;27.69;97494.50;6291470;28;20051;-67
2022/05/09 02:49:50;;;;;;;;;;;;;;;10.32;27.16;97504.47;6289738;28;19932;-66
2022/05/09 02:52:53;;;;;;;;;;;;;;;10.39;27.05;97489.19;6290850;28;20386;-67
2022/05/09 02:55:54;;;;;;;;;;;;;;;10.45;26.90;97496.78;6291096;28;19924;-67
2022/05/09 02:58:57;;;;;;;;;;;;;;;10.54;27.07;97486.59;6290914;28;19946;-67
2022/05/09 03:01:58;;;;;;;;;;;;;;;10.59;26.96;97488.97;6291210;28;19925;-66
2022/05/09 03:04:59;;;;;;;;;;;;;;;10.65;26.78;97487.78;6289892;28;19932;-67
2022/05/09 03:08:01;;;;;;;;;;;;;;;10.68;26.77;97483.19;6288994;28;19974;-66
2022/05/09 03:11:04;;;;;;;;;;;;;;;10.75;26.75;97481.06;6290521;28;19932;-67
2022/05/09 03:14:10;;;;;;;;;;;;;;;10.79;26.54;97472.94;6289474;28;19947;-67
2022/05/09 03:17:12;;;;;;;;;;;;;;;10.87;26.54;97476.88;6290227;28;19924;-66
2022/05/09 03:20:15;;;;;;;;;;;;;;;10.97;26.40;97470.19;6288674;28;20486;-67
2022/05/09 03:23:18;;;;;;;;;;;;;;;11.10;26.45;97465.91;6291701;28;20317;-68
2022/05/09 03:26:20;;;;;;;;;;;;;;;11.28;26.27;97469.25;6294324;28;19925;-66
2022/05/09 03:29:21;;;;;;;;;;;;;;;11.46;26.09;97454.16;6292999;28;19931;-67
2022/05/09 03:32:22;;;;;;;;;;;;;;;11.66;25.71;97460.88;6295296;28;19928;-67
2022/05/09 03:35:26;;;;;;;;;;;;;;;11.80;25.63;97454.78;6293658;28;19924;-67
2022/05/09 03:38:27;;;;;;;;;;;;;;;11.97;25.37;97449.34;6295170;28;20018;-66
2022/05/09 03:41:28;;;;;;;;;;;;;;;12.25;25.23;97447.66;6295697;28;19924;-66
2022/05/09 03:44:35;;;;;;;;;;;;;;;12.68;24.52;97445.81;6294794;28;20066;-66
2022/05/09 03:47:38;;;;;;;;;;;;;;;13.03;24.14;97435.56;6293564;28;19928;-67
2022/05/09 03:50:44;;;;;;;;;;;;;;;13.29;23.78;97440.97;6294123;28;19925;-66
2022/05/09 03:53:45;;;;;;;;;;;;;;;13.48;23.24;97441.41;6308897;28;19924;-67
2022/05/09 03:56:46;;;;;;;;;;;;;;;13.56;23.16;97442.69;6295762;28;19931;-66
2022/05/09 03:59:50;;;;;;;;;;;;;;;13.69;23.17;97425.88;6294115;28;19924;-66
2022/05/09 04:02:54;;;;;;;;;;;;;;;13.86;23.06;97430.00;6295598;28;20393;-66
2022/05/09 04:05:57;;;;;;;;;;;;;;;14.09;22.68;97424.91;6294189;28;19925;-66
2022/05/09 04:08:58;;;;;;;;;;;;;;;14.57;21.93;97414.47;6290873;28;19920;-66
2022/05/09 04:12:03;;;;;;;;;;;;;;;14.85;21.66;97410.66;6290979;28;19924;-67
2022/05/09 04:18:24;;;;;;;;;;;;;;;15.75;21.02;97407.50;6297096;28;20293;-67
2022/05/09 04:21:26;;;;;;;;;;;;;;;16.25;20.30;97406.19;6293603;28;20023;-66
2022/05/09 04:24:30;;;;;;;;;;;;;;;16.69;19.90;97411.53;6293633;28;20386;-66
2022/05/09 04:27:33;;;;;;;;;;;;;;;17.22;19.35;97422.28;6292998;28;20457;-66
2022/05/09 04:30:38;;;;;;;;;;;;;;;17.80;18.72;97417.38;6290051;28;19925;-66
2022/05/09 04:33:43;;;;;;;;;;;;;;;18.45;18.34;97411.78;6294059;28;19928;-67
2022/05/09 04:36:49;;;;;;;;;;;;;;;19.03;17.46;97407.47;6294109;28;20409;-67
2022/05/09 04:39:51;;;;;;;;;;;;;;;19.76;16.98;97408.84;6293136;28;19924;-67
2022/05/09 04:42:52;;;;;;;;;;;;;;;20.62;15.99;97402.34;6292257;28;20420;-66
2022/05/09 04:46:03;;;;;;;;;;;;;;;21.42;15.51;97402.50;6292551;28;19928;-66
2022/05/09 04:49:04;;;;;;;;;;;;;;;22.28;14.68;97407.16;6293568;28;19967;-67
2022/05/09 04:52:10;;;;;;;;;;;;;;;23.16;13.60;97409.47;6292693;28;19924;-67
2022/05/09 04:55:15;;;;;;;;;;;;;;;23.93;13.15;97406.47;6292350;28;19924;-66
2022/05/09 04:58:20;;;;;;;;;;;;;;;24.83;11.67;97400.81;6293255;28;19925;-68
2022/05/09 05:01:23;;;;;;;;;;;;;;;24.97;11.60;97402.75;6291955;28;20409;-67
2022/05/09 05:04:24;;;;;;;;;;;;;;;25.30;11.96;97413.34;6292627;28;19924;-67
2022/05/09 05:07:28;;;;;;;;;;;;;;;25.59;11.77;97406.38;6292432;28;19931;-67
2022/05/09 05:10:32;;;;;;;;;;;;;;;25.73;11.69;97408.28;6292478;28;20408;-67
2022/05/09 05:13:33;;;;;;;;;;;;;;;26.49;11.79;97397.41;6293440;28;20393;-66
2022/05/09 05:19:58;;;;;;;;;;;;;;;28.23;10.75;97400.91;6288197;28;20386;-66
2022/05/09 05:23:02;;;;;;;;;;;;;;;28.40;10.12;97396.84;6294804;28;19924;-67
2022/05/09 05:26:04;;;;;;;;;;;;;;;27.89;9.80;97400.66;6293034;28;19924;-69
2022/05/09 05:29:06;;;;;;;;;;;;;;;26.76;9.79;97385.97;6287326;28;19930;-68
2022/05/09 05:32:20;;;;;;;;;;;;;;;26.02;10.54;97385.16;6292615;28;20328;-67
2022/05/09 05:35:23;;;;;;;;;;;;;;;25.68;10.62;97383.75;6289607;28;19925;-68
2022/05/09 05:38:27;;;;;;;;;;;;;;;25.95;9.90;97372.38;6289332;28;20279;-68
2022/05/09 05:41:29;;;;;;;;;;;;;;;27.39;9.52;97393.53;6291135;28;20285;-67
2022/05/09 05:44:34;;;;;;;;;;;;;;;29.04;8.73;97376.72;6291340;28;19924;-67
2022/05/09 05:47:43;;;;;;;;;;;;;;;29.47;8.52;97385.38;6291561;28;20390;-68
2022/05/09 05:50:44;;;;;;;;;;;;;;;29.76;8.34;97394.19;6288397;28;19924;-67
2022/05/09 05:53:50;;;;;;;;;;;;;;;30.21;7.80;97383.50;6291433;28;20313;-67
2022/05/09 05:56:53;;;;;;;;;;;;;;;30.62;7.29;97385.91;6291600;28;19924;-68
2022/05/09 05:59:57;;;;;;;;;;;;;;;30.96;7.46;97383.09;6290840;28;19924;-69
2022/05/09 06:03:00;;;;;;;;;;;;;;;32.10;6.58;97373.94;6291662;28;20365;-67
2022/05/09 06:06:07;;;;;;;;;;;;;;;32.78;6.64;97378.47;6326267;27;2157205;-68
2022/05/09 06:09:13;;;;;;;;;;;;;;;32.98;7.05;97367.28;6396655;27;19926;-67
2022/05/09 06:12:19;;;;;;;;;;;;;;;32.96;6.84;97363.97;6393731;27;19923;-68
2022/05/09 06:15:28;;;;;;;;;;;;;;;32.58;7.01;97353.31;6399516;27;19930;-68
2022/05/09 06:18:32;;;;;;;;;;;;;;;32.27;7.28;97348.84;6377665;27;20281;-67
2022/05/09 06:21:37;;;;;;;;;;;;;;;31.82;6.60;97346.31;6396866;27;19923;-68
2022/05/09 06:24:43;;;;;;;;;;;;;;;30.52;7.24;97335.81;6402137;27;20323;-67
2022/05/09 06:27:47;;;;;;;;;;;;;;;30.17;7.30;97328.78;6404035;27;19930;-67
2022/05/09 06:30:51;;;;;;;;;;;;;;;29.29;7.83;97320.06;6396818;27;19923;-68
2022/05/09 06:37:42;;;;;;;;;;;;;;;28.81;7.75;97312.03;6379573;27;20419;-67
2022/05/09 06:40:46;;;;;;;;;;;;;;;28.96;7.50;97304.59;6378084;27;19923;-67
2022/05/09 06:43:47;;;;;;;;;;;;;;;29.33;7.48;97305.09;6393205;27;19923;-67
2022/05/09 06:46:49;;;;;;;;;;;;;;;29.89;7.06;97293.78;6400177;27;20309;-67
2022/05/09 06:50:05;;;;;;;;;;;;;;;30.02;7.26;97286.69;6362076;27;19927;-69
2022/05/09 06:53:13;;;;;;;;;;;;;;;29.59;7.52;97282.56;6376555;27;19924;-67
2022/05/09 06:56:19;;;;;;;;;;;;;;;29.30;7.78;97275.69;6399328;27;19923;-68
2022/05/09 06:59:22;;;;;;;;;;;;;;;30.04;7.21;97295.44;6403201;27;19923;-66
2022/05/09 07:02:26;;;;;;;;;;;;;;;29.97;7.38;97290.84;6392999;27;20335;-67
2022/05/09 07:05:30;;;;;;;;;;;;;;;30.03;7.35;97293.75;6397297;27;19923;-67
2022/05/09 07:08:33;;;;;;;;;;;;;;;30.46;6.46;97285.06;6391703;27;19946;-67
2022/05/09 07:11:37;;;;;;;;;;;;;;;29.44;7.07;97277.34;6395882;27;20014;-67
2022/05/09 07:14:38;;;;;;;;;;;;;;;29.22;7.37;97275.91;6393038;27;19930;-67
2022/05/09 07:17:39;;;;;;;;;;;;;;;29.75;7.27;97260.44;6372325;27;19923;-67
2022/05/09 07:20:43;;;;;;;;;;;;;;;29.45;7.31;97251.91;6382587;27;19923;-67
2022/05/09 07:23:45;;;;;;;;;;;;;;;28.69;7.48;97256.81;6341984;27;20307;-67
2022/05/09 07:26:51;;;;;;;;;;;;;;;27.34;8.16;97250.06;6382350;27;19930;-67
2022/05/09 07:30:06;;;;;;;;;;;;;;;26.21;8.54;97238.91;6356115;27;19923;-67
2022/05/09 07:33:10;;;;;;;;;;;;;;;25.59;8.89;97240.16;6377518;27;19923;-67
2022/05/09 07:36:13;;;;;;;;;;;;;;;25.23;9.17;97230.09;6379957;27;19924;-67
2022/05/09 07:39:14;;;;;;;;;;;;;;;25.08;9.25;97230.03;6378368;27;19935;-67
2022/05/09 07:42:15;;;;;;;;;;;;;;;25.28;9.23;97214.22;6379155;27;20307;-66
2022/05/09 07:45:20;;;;;;;;;;;;;;;25.91;8.99;97214.72;6399818;27;19923;-66
2022/05/09 07:48:23;;;;;;;;;;;;;;;26.65;8.79;97213.69;6379652;27;20301;-67
2022/05/09 07:51:25;;;;;;;;;;;;;;;26.61;8.36;97204.31;6372949;27;19930;-67
2022/05/09 07:54:26;;;;;;;;;;;;;;;27.35;8.48;97197.69;6381255;27;19934;-67
2022/05/09 07:57:30;;;;;;;;;;;;;;;27.94;8.21;97202.59;6359855;27;19923;-67
2022/05/09 08:00:35;;;;;;;;;;;;;;;28.10;7.76;97209.56;6379767;27;19923;-67
2022/05/09 08:03:38;;;;;;;;;;;;;;;28.25;7.89;97193.16;6373201;27;19923;-67
2022/05/09 08:06:42;;;;;;;;;;;;;;;29.49;7.28;97200.78;6372614;27;19923;-67
2022/05/09 08:09:43;;;;;;;;;;;;;;;31.30;6.82;97192.34;6373943;27;19979;-68
2022/05/09 08:12:45;;;;;;;;;;;;;;;32.56;6.33;97195.56;6359831;27;20301;-67
2022/05/09 08:15:50;;;;;;;;;;;;;;;33.34;5.66;97190.16;6379024;27;19923;-66
2022/05/09 08:18:53;;;;;;;;;;;;;;;33.93;5.75;97180.03;6376733;27;19923;-68
2022/05/09 08:21:57;;;;;;;;;;;;;;;34.51;5.81;97173.56;6375018;27;20300;-68
2022/05/09 08:25:01;;;;;;;;;;;;;;;34.90;5.30;97170.16;6375399;27;20420;-68
2022/05/09 08:28:04;;;;;;;;;;;;;;;34.37;5.36;97178.50;6377342;27;19931;-67
2022/05/09 08:31:08;;;;;;;;;;;;;;;33.97;5.39;97162.94;6381500;27;19923;-66
2022/05/09 08:34:09;;;;;;;;;;;;;;;33.28;5.68;97153.75;6377942;27;19945;-66
2022/05/09 08:37:10;;;;;;;;;;;;;;;32.34;6.46;97153.53;6380212;27;20323;-66
2022/05/09 08:40:13;;;;;;;;;;;;;;;32.16;6.39;97147.06;6376144;27;19923;-67
2022/05/09 08:43:17;;;;;;;;;;;;;;;31.56;6.14;97146.09;6380447;27;20307;-69
2022/05/09 08:46:24;;;;;;;;;;;;;;;31.32;6.19;97135.88;6371262;27;19923;-66
2022/05/09 08:49:37;;;;;;;;;;;;;;;30.86;6.65;97126.28;6381777;27;20384;-65
2022/05/09 08:52:42;;;;;;;;;;;;;;;30.31;6.73;97123.31;6388555;27;19923;-65
2022/05/09 08:55:46;;;;;;;;;;;;;;;30.40;6.68;97111.16;6392006;27;20057;-65
2022/05/09 08:58:51;;;;;;;;;;;;;;;31.24;6.82;97106.25;6379311;27;19930;-66
2022/05/09 09:01:59;;;;;;;;;;;;;;;32.37;6.28;97104.06;6388203;27;19930;-65
2022/05/09 09:05:03;;;;;;;;;;;;;;;32.86;6.23;97102.03;6381228;27;19923;-66
2022/05/09 09:08:15;;;;;;;;;;;;;;;33.44;5.66;97103.13;6378041;27;19962;-66
2022/05/09 09:11:28;;;;;;;;;;;;;;;34.38;5.52;97097.38;6382214;27;19930;-65
2022/05/09 09:14:49;;;;;;;;;;;;;;;34.93;5.12;97093.94;6335258;27;19930;-65
2022/05/09 09:18:08;;;;;;;;;;;;;;;34.64;5.35;97085.81;6314119;27;19924;-65
2022/05/09 09:21:18;;;;;;;;;;;;;;;33.40;5.72;97075.47;6339807;27;19923;-65
2022/05/09 09:24:19;;;;;;;;;;;;;;;32.99;6.22;97069.13;6361459;27;19931;-66
2022/05/09 09:27:44;;;;;;;;;;;;;;;32.44;6.28;97061.19;6362506;27;19931;-64
2022/05/09 09:30:48;;;;;;;;;;;;;;;32.75;6.51;97067.41;6361367;27;19930;-65
2022/05/09 09:33:53;;;;;;;;;;;;;;;33.83;6.14;97057.84;6327628;27;19930;-65
2022/05/09 09:37:07;;;;;;;;;;;;;;;34.79;5.61;97059.81;6359658;27;20704;-65
2022/05/09 09:40:09;;;;;;;;;;;;;;;35.66;5.19;97063.81;6370207;27;19923;-65
2022/05/09 09:43:14;;;;;;;;;;;;;;;35.48;5.26;97057.53;6371662;27;19923;-65
2022/05/09 09:46:15;;;;;;;;;;;;;;;34.20;5.65;97046.53;6371003;27;19923;-64
2022/05/09 09:49:17;;;;;;;;;;;;;;;33.44;5.78;97035.75;6367789;27;20396;-65
2022/05/09 09:52:18;;;;;;;;;;;;;;;32.87;5.96;97030.13;6351904;27;20365;-65
2022/05/09 09:55:39;;;;;;;;;;;;;;;33.22;6.02;97027.38;6352215;27;20346;-65
2022/05/09 09:58:44;;;;;;;;;;;;;;;33.62;5.60;97023.03;6369403;27;19948;-66
2022/05/09 10:01:59;;;;;;;;;;;;;;;33.60;5.51;97019.69;6368356;27;19941;-64
2022/05/09 10:05:10;;;;;;;;;;;;;;;34.41;5.55;97004.00;6367257;28;19946;-67
2022/05/09 10:08:37;;;;;;;;;;;;;;;35.01;5.34;97013.38;6366768;28;19923;-65
2022/05/09 10:11:38;;;;;;;;;;;;;;;34.02;5.54;97001.13;6363176;28;20312;-65
2022/05/09 10:14:42;;;;;;;;;;;;;;;33.31;5.74;97003.28;6354304;28;20343;-65
2022/05/09 10:17:45;;;;;;;;;;;;;;;32.32;5.79;96997.72;6367544;28;19923;-65
2022/05/09 10:20:53;;;;;;;;;;;;;;;31.62;6.00;96993.72;6355066;28;20495;-66
2022/05/09 10:27:20;;;;;;;;;;;;;;;30.12;6.88;96978.53;6365065;28;19931;-66
2022/05/09 10:30:22;;;;;;;;;;;;;;;29.78;7.21;96977.13;6345599;28;19930;-66
2022/05/09 10:33:31;;;;;;;;;;;;;;;29.51;7.20;96960.97;6367534;28;19924;-65
2022/05/09 10:36:45;;;;;;;;;;;;;;;29.19;7.60;96956.56;6369960;28;19923;-66
2022/05/09 10:39:53;;;;;;;;;;;;;;;29.70;7.10;96958.38;6368089;28;20354;-65
2022/05/09 10:43:17;;;;;;;;;;;;;;;29.96;6.91;96969.03;6369562;28;19924;-66
2022/05/09 10:46:27;;;;;;;;;;;;;;;30.30;6.53;96960.66;6365379;28;20895;-66
2022/05/09 10:49:32;;;;;;;;;;;;;;;30.30;6.97;96957.97;6365790;27;19927;-66
2022/05/09 10:52:39;;;;;;;;;;;;;;;30.32;6.47;96953.13;6370579;27;19928;-66
2022/05/09 10:56:02;;;;;;;;;;;;;;;29.48;7.02;96958.69;6369213;27;20392;-65
2022/05/09 10:59:03;;;;;;;;;;;;;;;29.01;7.32;96944.47;6370435;27;19923;-66
2022/05/09 11:02:07;;;;;;;;;;;;;;;28.67;7.34;96947.53;6347304;27;19931;-65
2022/05/09 11:05:08;;;;;;;;;;;;;;;28.29;7.39;96940.91;6362019;27;20373;-69
2022/05/09 11:08:45;;;;;;;;;;;;;;;27.92;7.65;96940.50;6369018;27;20067;-66
2022/05/09 11:12:03;;;;;;;;;;;;;;;27.65;7.76;96947.72;6278958;27;19924;-66
2022/05/09 11:15:11;;;;;;;;;;;;;;;27.29;8.43;96940.78;6353558;27;19923;-66
2022/05/09 11:18:17;;;;;;;;;;;;;;;26.77;8.38;96930.56;6369379;27;19923;-65
2022/05/09 11:21:24;;;;;;;;;;;;;;;26.41;8.90;96924.34;6372319;27;19927;-66
2022/05/09 11:24:28;;;;;;;;;;;;;;;26.16;9.18;96917.72;6356395;27;19923;-65
2022/05/09 11:27:50;;;;;;;;;;;;;;;26.03;9.23;96913.06;6374181;27;19923;-65
2022/05/09 11:31:02;;;;;;;;;;;;;;;25.81;8.85;96908.69;6360329;27;19924;-66
2022/05/09 11:34:28;;;;;;;;;;;;;;;25.78;9.05;96899.13;6369154;27;19971;-65
2022/05/09 11:37:37;;;;;;;;;;;;;;;25.76;9.14;96901.22;6367177;27;20323;-65
2022/05/09 11:40:45;;;;;;;;;;;;;;;25.73;9.56;96890.81;6365202;27;20055;-66
2022/05/09 11:43:57;;;;;;;;;;;;;;;25.73;9.61;96891.66;6368342;27;19927;-66
2022/05/09 11:47:12;;;;;;;;;;;;;;;25.72;9.58;96889.16;6364900;27;19923;-65
2022/05/09 11:50:33;;;;;;;;;;;;;;;25.84;9.22;96874.13;6365529;27;19930;-66
2022/05/09 11:53:39;;;;;;;;;;;;;;;25.93;9.24;96864.88;6368688;27;19923;-66
2022/05/09 11:56:45;;;;;;;;;;;;;;;26.24;9.08;96863.63;6370498;27;19923;-66
2022/05/09 11:59:51;;;;;;;;;;;;;;;26.47;9.33;96859.78;6369709;27;19924;-65
2022/05/09 12:02:54;;;;;;;;;;;;;;;26.33;8.94;96853.53;6368358;27;20311;-67
2022/05/09 12:06:02;;;;;;;;;;;;;;;26.27;9.47;96848.91;6372308;27;19923;-66
2022/05/09 12:09:08;;;;;;;;;;;;;;;25.74;9.35;96846.66;6372904;27;19974;-65
2022/05/09 12:12:32;;;;;;;;;;;;;;;25.32;9.77;96837.59;6366832;27;19931;-66
2022/05/09 12:15:36;;;;;;;;;;;;;;;24.60;9.97;96831.25;6347567;28;20022;-65
2022/05/09 12:18:54;;;;;;;;;;;;;;;24.30;10.22;96811.59;6347467;28;19930;-66
2022/05/09 12:22:18;;;;;;;;;;;;;;;24.01;10.19;96820.50;6368706;27;19923;-65
2022/05/09 12:25:43;;;;;;;;;;;;;;;23.85;10.37;96812.63;6344504;27;20278;-65
2022/05/09 12:28:48;;;;;;;;;;;;;;;23.51;10.57;96800.50;6373381;27;19934;-66
2022/05/09 12:31:54;;;;;;;;;;;;;;;23.29;10.85;96794.97;6373147;27;19926;-66
2022/05/09 12:34:58;;;;;;;;;;;;;;;23.20;10.73;96796.06;6372898;27;19931;-65
2022/05/09 12:38:00;;;;;;;;;;;;;;;23.12;11.06;96796.13;6354307;27;20349;-66
2022/05/09 12:41:12;;;;;;;;;;;;;;;23.02;10.94;96782.97;6372118;27;20293;-66
2022/05/09 12:44:31;;;;;;;;;;;;;;;22.89;11.03;96784.53;6371560;27;19985;-64
2022/05/09 12:47:35;;;;;;;;;;;;;;;22.72;11.17;96784.66;6372323;27;19924;-65
2022/05/09 12:50:43;;;;;;;;;;;;;;;22.64;11.12;96776.66;6371648;27;19967;-66
2022/05/09 12:53:47;;;;;;;;;;;;;;;22.63;11.26;96767.78;6372329;27;19927;-65
2022/05/09 12:57:00;;;;;;;;;;;;;;;22.37;11.26;96773.47;6371480;27;19923;-66
2022/05/09 13:00:08;;;;;;;;;;;;;;;22.15;11.34;96763.50;6372087;27;19927;-66
2022/05/09 13:03:13;;;;;;;;;;;;;;;22.24;11.29;96757.13;6371949;27;19923;-65
2022/05/09 13:06:21;;;;;;;;;;;;;;;22.00;11.14;96746.50;6371826;27;19928;-66
2022/05/09 13:09:27;;;;;;;;;;;;;;;21.74;11.28;96745.75;6372146;27;20062;-66
2022/05/09 13:12:36;;;;;;;;;;;;;;;21.58;11.29;96750.31;6371836;27;19924;-65
2022/05/09 13:15:42;;;;;;;;;;;;;;;21.43;11.41;96743.00;6370001;27;20420;-66
2022/05/09 13:18:45;;;;;;;;;;;;;;;21.31;11.34;96736.28;6371435;27;20007;-65
2022/05/09 13:21:49;;;;;;;;;;;;;;;21.24;11.54;96737.97;6364339;27;20436;-66
2022/05/09 13:24:55;;;;;;;;;;;;;;;21.12;11.60;96733.94;6345998;28;20331;-66
2022/05/09 13:27:56;;;;;;;;;;;;;;;21.07;11.82;96732.63;6345736;28;20004;-65
2022/05/09 13:30:59;;;;;;;;;;;;;;;21.08;11.86;96726.25;6341047;27;20293;-65
2022/05/09 13:34:09;;;;;;;;;;;;;;;20.93;11.93;96725.28;6371358;27;19923;-65
2022/05/09 13:37:24;;;;;;;;;;;;;;;20.81;12.34;96727.47;6365935;27;19932;-65
2022/05/09 13:40:25;;;;;;;;;;;;;;;20.70;12.28;96724.28;6350397;27;19923;-65
2022/05/09 13:43:28;;;;;;;;;;;;;;;20.59;12.61;96712.91;6365817;27;19923;-65
2022/05/09 13:46:33;;;;;;;;;;;;;;;20.45;12.79;96708.19;6370002;27;19923;-65
2022/05/09 13:49:38;;;;;;;;;;;;;;;20.33;12.46;96712.19;6368753;27;19924;-65
2022/05/09 13:52:45;;;;;;;;;;;;;;;20.23;12.86;96695.44;6370459;27;19924;-65
2022/05/09 13:55:49;;;;;;;;;;;;;;;20.13;12.86;96693.78;6369383;27;19923;-66
2022/05/09 13:58:54;;;;;;;;;;;;;;;20.01;13.01;96692.38;6370630;27;19924;-66
2022/05/09 14:01:58;;;;;;;;;;;;;;;19.95;13.27;96688.53;6344672;27;19931;-66
2022/05/09 14:05:05;;;;;;;;;;;;;;;19.87;13.06;96695.69;6366938;28;19934;-69
2022/05/09 14:08:10;;;;;;;;;;;;;;;19.81;13.10;96693.66;6365345;28;19923;-68
2022/05/09 14:11:14;;;;;;;;;;;;;;;19.71;13.39;96691.13;6368385;28;20312;-68
2022/05/09 14:14:51;;;;;;;;;;;;;;;19.62;13.56;96687.56;6366739;28;19923;-68
2022/05/09 14:18:05;;;;;;;;;;;;;;;19.57;13.60;96679.19;6315402;28;19931;-63
2022/05/09 14:21:07;;;;;;;;;;;;;;;19.48;13.10;96677.50;6367169;28;19950;-65
2022/05/09 14:24:12;;;;;;;;;;;;;;;19.37;13.31;96673.28;6368356;27;19945;-67
2022/05/09 14:30:41;;;;;;;;;;;;;;;19.04;13.31;96677.56;6375405;27;19923;-64
2022/05/09 14:33:45;;;;;;;;;;;;;;;18.96;13.37;96664.19;6375808;27;20046;-67
2022/05/09 14:36:49;;;;;;;;;;;;;;;19.02;13.87;96658.22;6375576;27;19923;-62
2022/05/09 14:40:16;;;;;;;;;;;;;;;18.91;13.95;96651.34;6375544;27;19923;-63
2022/05/09 14:43:28;;;;;;;;;;;;;;;18.76;14.21;96648.38;6374947;27;20528;-67
2022/05/09 14:46:29;;;;;;;;;;;;;;;18.66;14.04;96647.63;6361177;27;19923;-63
2022/05/09 14:49:31;;;;;;;;;;;;;;;18.57;14.06;96648.53;6374884;27;20013;-62
2022/05/09 14:52:51;;;;;;;;;;;;;;;18.45;14.28;96644.47;6375130;27;19929;-62
2022/05/09 14:59:28;;;;;;;;;;;;;;;18.32;14.69;96624.41;6375064;27;19923;-62
2022/05/09 15:02:33;;;;;;;;;;;;;;;18.25;14.80;96618.00;6370764;27;19924;-62
2022/05/09 15:05:36;;;;;;;;;;;;;;;18.12;15.12;96609.56;6369047;27;19923;-61
2022/05/09 15:08:39;;;;;;;;;;;;;;;18.09;15.43;96604.56;6354185;27;20028;-61
2022/05/09 15:11:43;;;;;;;;;;;;;;;17.94;15.54;96605.06;6375114;27;20045;-62
2022/05/09 15:14:47;;;;;;;;;;;;;;;17.86;15.63;96597.03;6375333;27;20373;-61
2022/05/09 15:17:48;;;;;;;;;;;;;;;17.75;15.60;96599.88;6371754;27;19924;-62
2022/05/09 15:20:54;;;;;;;;;;;;;;;17.72;15.65;96595.69;6373541;27;19923;-61
2022/05/09 15:23:57;;;;;;;;;;;;;;;17.72;15.70;96600.19;6374741;27;19923;-62
2022/05/09 15:26:59;;;;;;;;;;;;;;;17.54;15.94;96592.16;6373499;27;19927;-61
2022/05/09 15:30:02;;;;;;;;;;;;;;;17.41;15.99;96607.63;6372690;27;20025;-62
2022/05/09 15:33:06;;;;;;;;;;;;;;;17.26;15.89;96599.31;6374377;27;19931;-61
2022/05/09 15:36:08;;;;;;;;;;;;;;;17.14;16.03;96600.50;6369042;27;20414;-62
2022/05/09 15:39:12;;;;;;;;;;;;;;;17.02;16.32;96598.03;6373699;27;19923;-63
2022/05/09 15:42:22;;;;;;;;;;;;;;;16.92;16.40;96602.53;6373503;27;19924;-62
2022/05/09 15:45:24;;;;;;;;;;;;;;;16.85;16.50;96600.63;6373379;27;19923;-62
2022/05/09 15:48:27;;;;;;;;;;;;;;;16.74;16.64;96598.94;6369627;27;19933;-62
2022/05/09 15:51:30;;;;;;;;;;;;;;;16.63;16.86;96591.13;6372737;27;20008;-62
2022/05/09 15:54:32;;;;;;;;;;;;;;;16.54;16.89;96587.53;6373000;27;19929;-62
2022/05/09 15:57:33;;;;;;;;;;;;;;;16.47;16.93;96584.59;6370716;27;19923;-63
2022/05/09 16:00:34;;;;;;;;;;;;;;;16.43;17.13;96574.41;6361345;27;19930;-62
2022/05/09 16:03:38;;;;;;;;;;;;;;;16.36;17.03;96582.09;6372705;27;20392;-63
2022/05/09 16:13:25;;;;;;;;;;;;;;;16.18;17.65;96581.97;6355221;27;19919;-61
2022/05/09 16:16:28;;;;;;;;;;;;;;;16.14;17.69;96576.13;6372914;27;19970;-62
2022/05/09 16:19:33;;;;;;;;;;;;;;;16.00;17.89;96568.59;6350873;27;20020;-62
2022/05/09 16:22:36;;;;;;;;;;;;;;;15.92;17.74;96560.50;6364525;27;19942;-63
2022/05/09 16:25:40;;;;;;;;;;;;;;;15.93;18.07;96562.16;6372366;27;19946;-62
2022/05/09 16:28:44;;;;;;;;;;;;;;;15.91;18.10;96564.13;6373217;27;20019;-63
2022/05/09 16:31:46;;;;;;;;;;;;;;;15.85;18.16;96554.06;6372212;27;19923;-64
2022/05/09 16:34:49;;;;;;;;;;;;;;;15.80;18.16;96553.66;6370751;27;19957;-62
2022/05/09 16:37:50;;;;;;;;;;;;;;;15.80;18.22;96545.72;6372363;27;20396;-63
2022/05/09 16:40:52;;;;;;;;;;;;;;;15.81;18.29;96550.03;6371830;27;19926;-63
2022/05/09 16:43:54;;;;;;;;;;;;;;;15.77;18.44;96549.47;6371916;27;19930;-61